createdAt,value
2022-09-15T00:01:08.736Z,98926.90
2022-09-15T00:03:42.569Z,98919.34
2022-09-15T00:06:10.233Z,98920.08
2022-09-15T00:08:37.685Z,98920.64
2022-09-15T00:11:14.435Z,98916.28
2022-09-15T00:13:41.633Z,98910.03
2022-09-15T00:16:13.600Z,98911.64
2022-09-15T00:18:44.231Z,98905.70
2022-09-15T00:21:17.309Z,98904.25
2022-09-15T00:23:44.517Z,98903.23
2022-09-15T00:26:14.218Z,98903.90
2022-09-15T00:28:41.382Z,98899.72
2022-09-15T00:31:11.605Z,98899.77
2022-09-15T00:33:38.710Z,98898.20
2022-09-15T00:36:09.464Z,98900.04
2022-09-15T00:38:37.554Z,98900.77
2022-09-15T00:41:06.354Z,98905.70
2022-09-15T00:43:45.210Z,98912.13
2022-09-15T00:46:13.450Z,98915.27
2022-09-15T00:48:48.414Z,98919.85
2022-09-15T00:51:20.164Z,98922.52
2022-09-15T00:53:49.045Z,98920.56
2022-09-15T00:56:19.234Z,98917.15
2022-09-15T00:58:55.895Z,98918.69
2022-09-15T01:01:26.325Z,98920.58
2022-09-15T01:03:54.666Z,98917.30
2022-09-15T01:06:37.129Z,98910.92
2022-09-15T01:09:12.586Z,98905.44
2022-09-15T01:11:41.520Z,98897.59
2022-09-15T01:14:08.632Z,98889.04
2022-09-15T01:16:37.912Z,98884.99
2022-09-15T01:19:42.368Z,98886.91
2022-09-15T01:22:22.126Z,98887.84
2022-09-15T01:25:00.894Z,98885.92
2022-09-15T01:28:05.457Z,98880.71
2022-09-15T01:30:37.482Z,98876.73
2022-09-15T01:33:36.951Z,98874.23
2022-09-15T01:36:12.585Z,98873.61
2022-09-15T01:39:10.095Z,98873.98
2022-09-15T01:41:51.297Z,98867.08
2022-09-15T01:44:27.438Z,98861.79
2022-09-15T01:46:58.097Z,98856.52
2022-09-15T01:49:28.728Z,98854.52
2022-09-15T01:51:55.604Z,98854.96
2022-09-15T01:54:29.457Z,98857.86
2022-09-15T01:56:56.675Z,98857.98
2022-09-15T01:59:23.604Z,98859.52
2022-09-15T02:02:06.789Z,98854.90
2022-09-15T02:04:40.056Z,98854.48
2022-09-15T02:07:12.374Z,98852.61
2022-09-15T02:10:11.441Z,98852.23
2022-09-15T02:12:47.781Z,98854.30
2022-09-15T02:15:24.498Z,98848.14
2022-09-15T02:17:55.487Z,98847.03
2022-09-15T02:20:41.093Z,98849.71
2022-09-15T02:23:16.844Z,98848.16
2022-09-15T02:25:48.458Z,98843.39
2022-09-15T02:28:18.934Z,98838.92
2022-09-15T02:30:48.596Z,98838.43
2022-09-15T02:33:20.282Z,98841.36
2022-09-15T02:35:47.306Z,98840.39
2022-09-15T02:38:14.715Z,98833.65
2022-09-15T02:40:44.238Z,98826.76
2022-09-15T02:43:14.561Z,98824.44
2022-09-15T02:45:41.442Z,98821.74
2022-09-15T02:48:09.244Z,98818.75
2022-09-15T02:50:37.760Z,98815.04
2022-09-15T02:53:04.900Z,98813.23
2022-09-15T02:55:31.865Z,98813.22
2022-09-15T02:57:58.953Z,98815.45
2022-09-15T03:00:27.813Z,98817.67
2022-09-15T03:02:55.404Z,98822.81
2022-09-15T03:05:25.702Z,98826.98
2022-09-15T03:07:52.964Z,98828.70
2022-09-15T03:10:20.464Z,98826.32
2022-09-15T03:12:49.958Z,98822.33
2022-09-15T03:15:21.052Z,98823.11
2022-09-15T03:17:48.307Z,98822.67
2022-09-15T03:20:19.774Z,98822.29
2022-09-15T03:22:47.337Z,98817.20
2022-09-15T03:25:13.986Z,98819.91
2022-09-15T03:27:41.958Z,98813.77
2022-09-15T03:30:10.294Z,98803.45
2022-09-15T03:32:37.647Z,98800.25
2022-09-15T03:35:06.259Z,98801.66
2022-09-15T03:37:34.110Z,98804.11
2022-09-15T03:40:00.827Z,98806.46
2022-09-15T03:42:27.570Z,98806.23
2022-09-15T03:44:54.299Z,98800.86
2022-09-15T03:47:21.233Z,98800.26
2022-09-15T03:49:47.894Z,98807.17
2022-09-15T03:52:14.734Z,98809.14
2022-09-15T03:54:41.613Z,98810.98
2022-09-15T03:57:08.180Z,98811.31
2022-09-15T03:59:34.756Z,98812.75
2022-09-15T04:02:01.512Z,98813.53
2022-09-15T04:04:28.454Z,98811.45
2022-09-15T04:06:55.005Z,98807.61
2022-09-15T04:09:21.693Z,98812.29
2022-09-15T04:11:48.489Z,98821.71
2022-09-15T04:14:15.085Z,98819.50
2022-09-15T04:16:41.814Z,98816.05
2022-09-15T04:19:08.479Z,98819.69
2022-09-15T04:21:35.457Z,98826.02
2022-09-15T04:24:04.480Z,98823.83
2022-09-15T04:26:34.766Z,98820.29
2022-09-15T04:29:04.666Z,98816.22
2022-09-15T04:31:33.433Z,98814.96
2022-09-15T04:34:00.930Z,98811.02
2022-09-15T04:36:29.189Z,98809.27
2022-09-15T04:38:57.757Z,98802.39
2022-09-15T04:41:26.109Z,98796.09
2022-09-15T04:43:54.081Z,98793.65
2022-09-15T04:46:21.444Z,98789.99
2022-09-15T04:48:48.495Z,98790.90
2022-09-15T04:51:18.760Z,98790.98
2022-09-15T04:53:46.434Z,98796.95
2022-09-15T04:56:16.618Z,98795.27
2022-09-15T04:58:46.454Z,98793.89
2022-09-15T05:01:21.961Z,98798.56
2022-09-15T05:03:49.673Z,98799.73
2022-09-15T05:06:20.523Z,98796.52
2022-09-15T05:08:53.316Z,98796.70
2022-09-15T05:11:20.818Z,98796.42
2022-09-15T05:13:48.022Z,98802.20
2022-09-15T05:16:17.826Z,98802.64
2022-09-15T05:18:46.210Z,98799.30
2022-09-15T05:21:15.449Z,98804.41
2022-09-15T05:23:43.113Z,98808.21
2022-09-15T05:26:15.693Z,98801.95
2022-09-15T05:28:42.969Z,98804.16
2022-09-15T05:31:17.576Z,98800.45
2022-09-15T05:33:45.986Z,98805.70
2022-09-15T05:36:14.646Z,98806.04
2022-09-15T05:38:41.976Z,98802.29
2022-09-15T05:41:12.174Z,98806.54
2022-09-15T05:43:39.685Z,98809.16
2022-09-15T05:46:07.357Z,98808.96
2022-09-15T05:48:34.819Z,98813.02
2022-09-15T05:51:02.635Z,98812.89
2022-09-15T05:53:30.472Z,98810.92
2022-09-15T05:55:59.075Z,98812.88
2022-09-15T05:58:26.284Z,98821.10
2022-09-15T06:00:53.984Z,98825.15
2022-09-15T06:03:25.305Z,98826.67
2022-09-15T06:06:06.313Z,98829.17
2022-09-15T06:08:35.825Z,98829.84
2022-09-15T06:11:08.026Z,98830.06
2022-09-15T06:13:34.883Z,98829.63
2022-09-15T06:16:06.255Z,98834.67
2022-09-15T06:18:35.442Z,98834.48
2022-09-15T06:21:04.828Z,98834.77
2022-09-15T06:23:32.017Z,98833.69
2022-09-15T06:26:09.183Z,98837.08
2022-09-15T06:28:36.030Z,98838.05
2022-09-15T06:31:03.264Z,98836.38
2022-09-15T06:33:30.100Z,98837.83
2022-09-15T06:36:02.085Z,98837.75
2022-09-15T06:38:29.502Z,98838.50
2022-09-15T06:40:57.919Z,98841.81
2022-09-15T06:43:25.207Z,98844.19
2022-09-15T06:45:52.137Z,98848.52
2022-09-15T06:48:24.960Z,98847.64
2022-09-15T06:50:54.697Z,98848.98
2022-09-15T06:53:21.824Z,98849.80
2022-09-15T06:55:48.903Z,98855.80
2022-09-15T06:58:16.124Z,98859.64
2022-09-15T07:00:42.970Z,98861.77
2022-09-15T07:03:10.039Z,98864.14
2022-09-15T07:05:37.425Z,98864.30
2022-09-15T07:08:04.286Z,98867.52
2022-09-15T07:10:31.556Z,98871.58
2022-09-15T07:13:00.734Z,98873.24
2022-09-15T07:15:27.871Z,98873.25
2022-09-15T07:17:54.769Z,98869.84
2022-09-15T07:20:22.394Z,98869.15
2022-09-15T07:22:49.464Z,98868.82
2022-09-15T07:25:16.532Z,98873.37
2022-09-15T07:27:43.934Z,98872.63
2022-09-15T07:30:11.610Z,98876.66
2022-09-15T07:32:38.329Z,98879.77
2022-09-15T07:35:05.633Z,98881.70
2022-09-15T07:37:32.844Z,98889.23
2022-09-15T07:39:59.880Z,98885.48
2022-09-15T07:42:26.834Z,98886.29
2022-09-15T07:44:53.579Z,98887.11
2022-09-15T07:47:20.244Z,98897.64
2022-09-15T07:49:46.934Z,98902.36
2022-09-15T07:52:14.069Z,98904.23
2022-09-15T07:54:40.961Z,98911.02
2022-09-15T07:57:07.585Z,98906.77
2022-09-15T07:59:37.184Z,98902.94
2022-09-15T08:02:06.092Z,98906.05
2022-09-15T08:04:32.824Z,98915.92
2022-09-15T08:06:59.534Z,98920.36
2022-09-15T08:09:26.147Z,98922.11
2022-09-15T08:11:52.698Z,98925.33
2022-09-15T08:14:19.262Z,98923.42
2022-09-15T08:16:45.919Z,98923.88
2022-09-15T08:19:12.853Z,98924.15
2022-09-15T08:21:40.013Z,98922.05
2022-09-15T08:24:06.570Z,98918.21
2022-09-15T08:26:33.104Z,98923.02
2022-09-15T08:29:00.467Z,98923.59
2022-09-15T08:31:27.214Z,98921.24
2022-09-15T08:33:56.688Z,98921.95
2022-09-15T08:36:27.275Z,98918.36
2022-09-15T08:38:53.867Z,98921.82
2022-09-15T08:41:46.255Z,98920.94
2022-09-15T08:44:37.969Z,98923.94
2022-09-15T08:47:15.818Z,98924.16
2022-09-15T08:50:07.658Z,98919.23
2022-09-15T08:52:40.057Z,98919.91
2022-09-15T08:55:33.990Z,98921.54
2022-09-15T08:58:00.685Z,98915.58
2022-09-15T09:00:29.194Z,98912.88
2022-09-15T09:03:04.831Z,98916.39
2022-09-15T09:06:09.039Z,98915.63
2022-09-15T09:08:55.672Z,98927.11
2022-09-15T09:11:31.116Z,98928.48
2022-09-15T09:14:16.357Z,98936.95
2022-09-15T09:17:22.837Z,98933.56
2022-09-15T09:20:34.639Z,98930.98
2022-09-15T09:23:05.293Z,98935.64
2022-09-15T09:25:32.128Z,98940.40
2022-09-15T09:28:01.656Z,98944.45
2022-09-15T09:30:32.794Z,98938.67
2022-09-15T09:33:34.447Z,98935.42
2022-09-15T09:36:03.265Z,98935.86
2022-09-15T09:38:39.407Z,98939.98
2022-09-15T09:41:18.098Z,98944.11
2022-09-15T09:43:48.833Z,98937.65
2022-09-15T09:46:20.781Z,98942.00
2022-09-15T09:48:59.239Z,98935.84
2022-09-15T09:51:38.350Z,98928.06
2022-09-15T09:54:35.064Z,98922.14
2022-09-15T09:57:14.491Z,98926.25
2022-09-15T09:59:44.469Z,98926.15
2022-09-15T10:02:11.156Z,98927.28
2022-09-15T10:04:39.285Z,98933.86
2022-09-15T10:07:17.888Z,98930.75
2022-09-15T10:10:05.408Z,98928.44
2022-09-15T10:12:40.943Z,98927.27
2022-09-15T10:15:31.369Z,98927.20
2022-09-15T10:17:58.154Z,98912.16
2022-09-15T10:20:32.180Z,98908.33
2022-09-15T10:23:18.495Z,98909.67
2022-09-15T10:25:58.722Z,98915.84
2022-09-15T10:28:27.922Z,98912.70
2022-09-15T10:31:12.971Z,98913.36
2022-09-15T10:33:45.822Z,98914.02
2022-09-15T10:36:13.828Z,98912.88
2022-09-15T10:38:49.605Z,98911.31
2022-09-15T10:41:25.380Z,98914.53
2022-09-15T10:44:04.327Z,98916.94
2022-09-15T10:47:06.731Z,98916.48
2022-09-15T10:50:00.380Z,98913.33
2022-09-15T10:52:29.017Z,98912.88
2022-09-15T10:55:51.201Z,98908.60
2022-09-15T10:58:38.959Z,98910.64
2022-09-15T11:01:26.055Z,98921.77
2022-09-15T11:04:31.077Z,98921.48
2022-09-15T11:07:16.686Z,98918.64
2022-09-15T11:10:06.691Z,98912.84
2022-09-15T11:12:45.574Z,98915.01
2022-09-15T11:15:40.290Z,98915.15
2022-09-15T11:18:28.366Z,98913.29
2022-09-15T11:21:05.734Z,98914.29
2022-09-15T11:24:10.735Z,98914.63
2022-09-15T11:26:45.530Z,98909.66
2022-09-15T11:29:22.944Z,98911.92
2022-09-15T11:31:58.278Z,98909.52
2022-09-15T11:34:33.144Z,98913.62
2022-09-15T11:37:23.804Z,98914.14
2022-09-15T11:39:57.559Z,98915.73
2022-09-15T11:42:38.807Z,98915.02
2022-09-15T11:45:17.079Z,98916.56
2022-09-15T11:47:49.778Z,98916.16
2022-09-15T11:50:30.015Z,98913.58
2022-09-15T11:52:56.825Z,98913.77
2022-09-15T11:55:37.768Z,98904.95
2022-09-15T11:58:22.135Z,98901.19
2022-09-15T12:01:18.795Z,98900.37
2022-09-15T12:04:04.579Z,98903.70
2022-09-15T12:07:01.352Z,98901.06
2022-09-15T12:09:28.857Z,98904.06
2022-09-15T12:12:07.178Z,98898.52
2022-09-15T12:14:42.198Z,98896.63
2022-09-15T12:17:18.759Z,98894.95
2022-09-15T12:20:16.928Z,98899.88
2022-09-15T12:23:08.123Z,98904.67
2022-09-15T12:25:59.075Z,98903.64
2022-09-15T12:28:37.782Z,98909.39
2022-09-15T12:31:25.980Z,98913.05
2022-09-15T12:33:59.965Z,98911.73
2022-09-15T12:36:43.931Z,98913.06
2022-09-15T12:39:32.064Z,98915.74
2022-09-15T12:42:25.231Z,98917.52
2022-09-15T12:44:54.117Z,98915.03
2022-09-15T12:47:35.452Z,98915.79
2022-09-15T12:50:14.100Z,98915.45
2022-09-15T12:53:00.905Z,98915.34
2022-09-15T12:55:36.263Z,98905.98
2022-09-15T12:58:17.833Z,98910.96
2022-09-15T13:01:07.136Z,98906.50
2022-09-15T13:06:10.304Z,98897.19
2022-09-15T13:08:37.344Z,98892.55
2022-09-15T13:11:09.041Z,98894.98
2022-09-15T13:13:43.291Z,98893.50
2022-09-15T13:16:40.732Z,98891.89
2022-09-15T13:19:30.345Z,98900.46
2022-09-15T13:22:12.586Z,98898.20
2022-09-15T13:25:03.229Z,98897.98
2022-09-15T13:27:35.784Z,98902.05
2022-09-15T13:30:22.061Z,98898.89
2022-09-15T13:33:22.365Z,98897.27
2022-09-15T13:35:51.803Z,98893.93
2022-09-15T13:38:37.479Z,98886.81
2022-09-15T13:41:32.409Z,98884.95
2022-09-15T13:44:36.174Z,98883.21
2022-09-15T13:47:18.945Z,98884.54
2022-09-15T13:49:51.536Z,98883.50
2022-09-15T13:52:18.014Z,98881.33
2022-09-15T13:55:21.029Z,98883.14
2022-09-15T14:00:51.174Z,98875.32
2022-09-15T14:03:25.317Z,98871.60
2022-09-15T14:05:54.037Z,98866.13
2022-09-15T14:08:26.551Z,98861.61
2022-09-15T14:11:01.462Z,98861.16
2022-09-15T14:13:30.084Z,98860.91
2022-09-15T14:16:10.427Z,98865.70
2022-09-15T14:18:43.890Z,98859.59
2022-09-15T14:21:17.525Z,98855.91
2022-09-15T14:23:52.870Z,98857.44
2022-09-15T14:26:30.213Z,98858.15
2022-09-15T14:29:02.791Z,98855.75
2022-09-15T14:31:38.556Z,98853.44
2022-09-15T14:34:14.773Z,98859.45
2022-09-15T14:36:41.708Z,98856.39
2022-09-15T14:39:11.137Z,98851.45
2022-09-15T14:41:39.637Z,98852.78
2022-09-15T14:47:22.396Z,98849.02
2022-09-15T14:49:49.267Z,98844.60
2022-09-15T14:52:26.729Z,98841.94
2022-09-15T14:55:07.558Z,98841.09
2022-09-15T14:57:37.993Z,98844.54
2022-09-15T15:00:18.651Z,98842.11
2022-09-15T15:03:17.522Z,98846.84
2022-09-15T15:06:02.332Z,98851.52
2022-09-15T15:08:34.908Z,98851.52
2022-09-15T15:11:02.026Z,98846.80
2022-09-15T15:13:29.358Z,98847.45
2022-09-15T15:15:56.170Z,98846.42
2022-09-15T15:18:31.702Z,98836.77
2022-09-15T15:20:59.817Z,98836.86
2022-09-15T15:23:27.366Z,98840.88
2022-09-15T15:26:43.249Z,98833.02
2022-09-15T15:29:47.705Z,98822.52
2022-09-15T15:32:17.346Z,98818.77
2022-09-15T15:35:02.640Z,98815.39
2022-09-15T15:37:31.711Z,98810.38
2022-09-15T15:40:04.768Z,98815.21
2022-09-15T15:42:31.794Z,98812.98
2022-09-15T15:45:17.004Z,98814.66
2022-09-15T15:47:43.634Z,98806.73
2022-09-15T15:50:20.290Z,98807.28
2022-09-15T15:52:48.734Z,98811.05
2022-09-15T15:55:18.803Z,98813.60
2022-09-15T15:57:52.796Z,98811.88
2022-09-15T16:00:23.795Z,98813.63
2022-09-15T16:02:51.734Z,98814.65
2022-09-15T16:05:26.159Z,98815.40
2022-09-15T16:07:56.547Z,98817.08
2022-09-15T16:10:27.557Z,98814.40
2022-09-15T16:12:54.365Z,98811.95
2022-09-15T16:15:22.174Z,98814.79
2022-09-15T16:17:49.345Z,98817.70
2022-09-15T16:20:16.721Z,98815.42
2022-09-15T16:22:43.671Z,98818.88
2022-09-15T16:25:20.764Z,98819.14
2022-09-15T16:27:47.636Z,98818.63
2022-09-15T16:30:14.255Z,98814.21
2022-09-15T16:32:40.848Z,98817.44
2022-09-15T16:35:51.396Z,98822.45
2022-09-15T16:38:19.808Z,98822.16
2022-09-15T16:40:47.633Z,98823.23
2022-09-15T16:43:19.057Z,98825.02
2022-09-15T16:45:46.192Z,98822.65
2022-09-15T16:48:13.215Z,98825.50
2022-09-15T16:50:50.309Z,98825.02
2022-09-15T16:53:30.532Z,98835.09
2022-09-15T16:55:58.057Z,98831.94
2022-09-15T16:58:27.697Z,98839.65
2022-09-15T17:01:24.378Z,98837.57
2022-09-15T17:03:51.434Z,98839.73
2022-09-15T17:06:21.641Z,98839.19
2022-09-15T17:08:48.846Z,98839.70
2022-09-15T17:11:18.353Z,98838.31
2022-09-15T17:13:46.335Z,98837.88
2022-09-15T17:16:16.994Z,98838.86
2022-09-15T17:18:43.682Z,98840.00
2022-09-15T17:21:15.778Z,98836.75
2022-09-15T17:23:47.974Z,98836.73
2022-09-15T17:26:19.618Z,98844.02
2022-09-15T17:28:47.067Z,98842.16
2022-09-15T17:31:19.894Z,98841.67
2022-09-15T17:33:48.626Z,98845.70
2022-09-15T17:36:16.086Z,98848.09
2022-09-15T17:38:44.903Z,98846.65
2022-09-15T17:41:18.449Z,98844.64
2022-09-15T17:43:46.754Z,98843.86
2022-09-15T17:46:13.486Z,98844.48
2022-09-15T17:48:40.261Z,98844.39
2022-09-15T17:51:09.981Z,98840.39
2022-09-15T17:53:36.624Z,98846.04
2022-09-15T17:56:03.437Z,98847.84
2022-09-15T17:58:32.001Z,98849.85
2022-09-15T18:00:58.987Z,98848.89
2022-09-15T18:03:34.102Z,98853.64
2022-09-15T18:06:19.275Z,98855.98
2022-09-15T18:08:58.759Z,98856.58
2022-09-15T18:11:40.874Z,98852.00
2022-09-15T18:14:26.216Z,98845.27
2022-09-15T18:16:52.994Z,98847.59
2022-09-15T18:19:39.876Z,98849.64
2022-09-15T18:22:06.594Z,98854.45
2022-09-15T18:24:41.998Z,98853.75
2022-09-15T18:27:27.095Z,98854.81
2022-09-15T18:29:59.930Z,98852.63
2022-09-15T18:32:42.725Z,98853.42
2022-09-15T18:35:28.385Z,98846.02
2022-09-15T18:37:58.113Z,98848.40
2022-09-15T18:40:48.829Z,98844.40
2022-09-15T18:43:35.281Z,98847.34
2022-09-15T18:46:02.343Z,98851.43
2022-09-15T18:48:44.358Z,98845.79
2022-09-15T18:51:50.440Z,98841.52
2022-09-15T18:54:16.296Z,98839.79
2022-09-15T18:56:45.837Z,98846.19
2022-09-15T18:59:31.484Z,98849.13
2022-09-15T19:01:58.373Z,98845.30
2022-09-15T19:04:31.024Z,98850.98
2022-09-15T19:06:59.075Z,98852.62
2022-09-15T19:09:25.668Z,98853.56
2022-09-15T19:11:52.284Z,98850.59
2022-09-15T19:14:19.094Z,98853.64
2022-09-15T19:16:57.657Z,98843.11
2022-09-15T19:19:25.165Z,98849.27
2022-09-15T19:21:52.019Z,98852.90
2022-09-15T19:24:18.895Z,98855.20
2022-09-15T19:26:47.244Z,98850.87
2022-09-15T19:29:15.195Z,98852.85
2022-09-15T19:31:42.332Z,98853.04
2022-09-15T19:34:09.056Z,98858.20
2022-09-15T19:36:35.974Z,98858.12
2022-09-15T19:39:03.414Z,98859.61
2022-09-15T19:41:30.473Z,98861.49
2022-09-15T19:43:59.756Z,98865.94
2022-09-15T19:46:26.607Z,98863.92
2022-09-15T19:48:53.846Z,98867.77
2022-09-15T19:51:21.623Z,98867.21
2022-09-15T19:53:48.367Z,98868.28
2022-09-15T19:56:22.007Z,98867.31
2022-09-15T19:58:49.484Z,98867.36
2022-09-15T20:01:17.710Z,98867.91
2022-09-15T20:06:32.640Z,98867.76
2022-09-15T20:09:00.136Z,98867.40
2022-09-15T20:11:29.651Z,98862.38
2022-09-15T20:13:57.369Z,98870.83
2022-09-15T20:16:25.299Z,98874.48
2022-09-15T20:18:54.270Z,98877.27
2022-09-15T20:21:46.279Z,98875.07
2022-09-15T20:24:15.247Z,98874.35
2022-09-15T20:26:41.933Z,98878.73
2022-09-15T20:29:10.369Z,98873.55
2022-09-15T20:31:37.096Z,98872.90
2022-09-15T20:34:03.761Z,98876.67
2022-09-15T20:36:35.444Z,98877.27
2022-09-15T20:39:06.019Z,98872.19
2022-09-15T20:41:32.982Z,98868.64
2022-09-15T20:43:59.976Z,98869.45
2022-09-15T20:46:28.906Z,98866.35
2022-09-15T20:48:55.538Z,98864.42
2022-09-15T20:51:25.744Z,98870.30
2022-09-15T20:53:54.342Z,98871.56
2022-09-15T20:56:24.938Z,98875.71
2022-09-15T20:58:56.435Z,98880.20
2022-09-15T21:01:38.074Z,98881.92
2022-09-15T21:04:08.722Z,98880.28
2022-09-15T21:06:36.542Z,98877.84
2022-09-15T21:09:04.214Z,98877.77
2022-09-15T21:11:31.154Z,98880.23
2022-09-15T21:13:58.377Z,98878.01
2022-09-15T21:16:27.569Z,98873.48
2022-09-15T21:18:58.054Z,98874.21
2022-09-15T21:21:29.496Z,98875.35
2022-09-15T21:24:00.564Z,98874.03
2022-09-15T21:26:30.938Z,98876.17
2022-09-15T21:28:57.905Z,98881.85
2022-09-15T21:31:27.723Z,98880.98
2022-09-15T21:33:55.401Z,98892.26
2022-09-15T21:36:27.596Z,98890.02
2022-09-15T21:38:56.419Z,98889.83
2022-09-15T21:41:25.813Z,98893.36
2022-09-15T21:43:54.966Z,98892.06
2022-09-15T21:46:24.284Z,98899.73
2022-09-15T21:48:51.235Z,98903.20
2022-09-15T21:51:24.615Z,98907.66
2022-09-15T21:53:56.161Z,98905.27
2022-09-15T21:56:24.444Z,98910.89
2022-09-15T21:58:51.376Z,98911.09
2022-09-15T22:01:21.544Z,98909.63
2022-09-15T22:04:00.725Z,98914.21
2022-09-15T22:06:31.347Z,98917.33
2022-09-15T22:08:59.614Z,98918.98
2022-09-15T22:11:26.465Z,98919.09
2022-09-15T22:13:53.377Z,98921.57
2022-09-15T22:16:22.357Z,98924.66
2022-09-15T22:18:49.944Z,98927.42
2022-09-15T22:21:22.540Z,98924.80
2022-09-15T22:23:50.623Z,98929.20
2022-09-15T22:26:19.866Z,98933.23
2022-09-15T22:28:46.691Z,98934.41
2022-09-15T22:31:16.243Z,98933.98
2022-09-15T22:33:43.144Z,98931.98
2022-09-15T22:36:30.687Z,98939.23
2022-09-15T22:39:06.332Z,98939.92
2022-09-15T22:41:37.707Z,98939.62
2022-09-15T22:44:06.488Z,98932.94
2022-09-15T22:46:33.832Z,98936.84
2022-09-15T22:49:00.418Z,98936.36
2022-09-15T22:51:27.139Z,98940.90
2022-09-15T22:53:56.149Z,98942.85
2022-09-15T22:56:25.188Z,98941.09
2022-09-15T22:58:51.923Z,98940.91
2022-09-15T23:01:21.181Z,98943.19
2022-09-15T23:03:55.699Z,98945.23
2022-09-15T23:06:24.045Z,98945.76
2022-09-15T23:08:52.893Z,98946.77
2022-09-15T23:11:20.498Z,98948.45
2022-09-15T23:13:47.590Z,98953.88
2022-09-15T23:16:14.283Z,98950.41
2022-09-15T23:18:41.218Z,98948.09
2022-09-15T23:21:10.153Z,98947.16
2022-09-15T23:23:38.867Z,98945.26
2022-09-15T23:26:08.226Z,98945.14
2022-09-15T23:28:35.878Z,98949.97
2022-09-15T23:31:02.570Z,98954.63
2022-09-15T23:33:31.596Z,98955.41
2022-09-15T23:36:00.969Z,98948.78
2022-09-15T23:38:27.868Z,98948.65
2022-09-15T23:40:54.425Z,98948.61
2022-09-15T23:43:21.711Z,98946.56
2022-09-15T23:45:50.594Z,98947.90
2022-09-15T23:48:17.347Z,98949.88
2022-09-15T23:50:44.984Z,98950.21
2022-09-15T23:53:12.806Z,98949.69
2022-09-15T23:55:39.435Z,98952.06
2022-09-15T23:58:06.161Z,98954.30
